Impacts METAR Board
IDs:

KTPA - Tampa Intl Arpt, FL, US

Updated at: 2200 UTC 02 Oct 2022
Potential Impact None Slight Moderate High
Time 02/10Z 02/11Z 02/12Z 02/13Z 02/14Z 02/15Z 02/16Z 02/17Z 02/18Z 02/19Z 02/20Z 02/21Z 02/22Z
Temp69 68 69 75 78 79 83 84 85 85 84 82 80
Dewpt64 64 65 68 68 68 66 58 52 49 50 52 55
Altim29.91 29.92 29.93 29.95 29.95 29.96 29.96 29.95 29.94 29.91 29.90 29.90 29.91
VIS10 10 10 10 10 10 10 10 10 10 10 10 10
CIG-- -- -- -- -- -- -- -- -- -- -- -- --
CoverCLRCLRCLRFEWFEWSCTSCTFEWFEWFEWFEWFEWCLR
FltCatVFRVFRVFRVFRVFRVFRVFRVFRVFRVFRVFRVFRVFR
WX--------------------------
WDir00002502400300300300350320310
WSpd0 0 0 0 4 5 0 9 9 10 10 11 10
WGst-- -- -- -- -- -- -- -- -- 18 17 -- --
Raw hourly METARs
KTPA 020953Z 00000KT 10SM CLR 21/18 A2991 RMK AO2 SLP128 T02060178
KTPA 021053Z 00000KT 10SM CLR 20/18 A2992 RMK AO2 SLP132 T02000178
KTPA 021153Z 00000KT 10SM CLR 21/18 A2993 RMK AO2 SLP136 T02060183 10211 20194 53010
KTPA 021253Z 00000KT 10SM FEW026 24/20 A2995 RMK AO2 SLP141 T02390200
KTPA 021353Z 25004KT 10SM FEW030 26/20 A2995 RMK AO2 SLP143 T02560200
KTPA 021453Z 24005KT 10SM SCT032 26/20 A2996 RMK AO2 SLP146 T02610200 51010
KTPA 021553Z 00000KT 10SM SCT038 28/19 A2996 RMK AO2 SLP145 T02830189
KTPA 021653Z 30009KT 10SM FEW041 29/14 A2995 RMK AO2 SLP142 T02890144
KTPA 021753Z 30009KT 280V350 10SM FEW044 29/11 A2994 RMK AO2 SLP137 T02940111 10294 20206 58009
KTPA 021853Z 30010G18KT 10SM FEW044 29/09 A2991 RMK AO2 SLP129 T02940094 $
KTPA 021953Z 35010G17KT 10SM FEW055 29/10 A2990 RMK AO2 SLP125 T02890100 $
KTPA 022053Z 32011KT 10SM FEW055 28/11 A2990 RMK AO2 SLP125 T02780111 56013 $
KTPA 022153Z 31010KT 10SM CLR 27/13 A2991 RMK AO2 SLP126 T02670128 $



Page loaded:  22:27 UTC  |   03:27 PM Pacific  |   04:27 PM Mountain  |   05:27 PM Central  |   06:27 PM Eastern

 

ADVISORIES

FORECASTS

FORECASTS

OBSERVATIONS

USER TOOLS

ABOUT US